createdAt,value
2022-08-24T00:00:41.163Z,1.10
2022-08-24T00:03:12.050Z,1.47
2022-08-24T00:05:40.417Z,1.00
2022-08-24T00:08:08.501Z,1.43
2022-08-24T00:10:36.575Z,1.37
2022-08-24T00:13:04.985Z,1.60
2022-08-24T00:15:32.969Z,0.80
2022-08-24T00:18:01.062Z,1.63
2022-08-24T00:20:30.658Z,1.73
2022-08-24T00:22:59.514Z,1.40
2022-08-24T00:25:27.870Z,1.27
2022-08-24T00:27:56.008Z,1.40
2022-08-24T00:30:24.019Z,1.40
2022-08-24T00:32:53.768Z,1.30
2022-08-24T00:35:22.684Z,1.30
2022-08-24T00:37:53.336Z,1.13
2022-08-24T00:40:25.801Z,1.37
2022-08-24T00:42:55.229Z,1.53
2022-08-24T00:45:24.957Z,0.97
2022-08-24T00:47:56.451Z,1.70
2022-08-24T00:50:28.664Z,1.20
2022-08-24T00:53:01.026Z,1.40
2022-08-24T00:55:31.836Z,1.30
2022-08-24T00:58:03.004Z,1.53
2022-08-24T01:00:34.093Z,1.30
2022-08-24T01:03:05.062Z,1.33
2022-08-24T01:05:34.505Z,1.67
2022-08-24T01:08:05.840Z,1.40
2022-08-24T01:10:37.559Z,1.33
2022-08-24T01:13:09.210Z,1.43
2022-08-24T01:15:39.352Z,1.67
2022-08-24T01:18:27.159Z,1.30
2022-08-24T01:21:01.618Z,1.40
2022-08-24T01:23:40.456Z,1.10
2022-08-24T01:26:10.053Z,1.13
2022-08-24T01:28:41.693Z,1.30
2022-08-24T01:31:10.432Z,1.57
2022-08-24T01:33:38.462Z,1.40
2022-08-24T01:36:12.631Z,1.77
2022-08-24T01:38:42.492Z,1.50
2022-08-24T01:41:12.393Z,1.90
2022-08-24T01:43:41.055Z,1.53
2022-08-24T01:46:10.575Z,1.47
2022-08-24T01:48:38.857Z,1.83
2022-08-24T01:51:07.092Z,1.50
2022-08-24T01:53:35.064Z,1.27
2022-08-24T01:56:06.069Z,1.90
2022-08-24T01:58:34.087Z,1.27
2022-08-24T02:01:02.222Z,1.40
2022-08-24T02:03:31.106Z,1.20
2022-08-24T02:05:59.541Z,1.30
2022-08-24T02:08:27.700Z,1.47
2022-08-24T02:10:57.008Z,1.70
2022-08-24T02:13:27.075Z,1.17
2022-08-24T02:15:55.264Z,1.53
2022-08-24T02:18:23.245Z,1.30
2022-08-24T02:20:51.552Z,1.63
2022-08-24T02:23:20.508Z,2.00
2022-08-24T02:25:48.593Z,1.60
2022-08-24T02:28:16.611Z,1.70
2022-08-24T02:30:46.036Z,1.63
2022-08-24T02:33:14.494Z,1.57
2022-08-24T02:35:42.859Z,1.27
2022-08-24T02:38:11.186Z,1.10
2022-08-24T02:40:39.434Z,1.07
2022-08-24T02:43:07.420Z,1.10
2022-08-24T02:45:39.867Z,1.97
2022-08-24T02:48:10.516Z,1.30
2022-08-24T02:50:40.494Z,1.40
2022-08-24T02:53:08.557Z,1.83
2022-08-24T02:55:36.953Z,2.17
2022-08-24T02:58:04.905Z,1.90
2022-08-24T03:00:33.020Z,1.60
2022-08-24T03:03:01.726Z,1.60
2022-08-24T03:05:31.324Z,1.70
2022-08-24T03:07:59.387Z,1.43
2022-08-24T03:10:28.619Z,2.17
2022-08-24T03:12:59.141Z,1.40
2022-08-24T03:15:27.405Z,1.97
2022-08-24T03:17:55.398Z,1.50
2022-08-24T03:20:24.983Z,1.67
2022-08-24T03:22:54.324Z,1.47
2022-08-24T03:25:24.702Z,1.63
2022-08-24T03:27:53.395Z,1.20
2022-08-24T03:30:22.154Z,1.43
2022-08-24T03:32:50.512Z,1.97
2022-08-24T03:35:19.265Z,1.80
2022-08-24T03:37:47.801Z,1.43
2022-08-24T03:40:22.720Z,2.03
2022-08-24T03:42:52.607Z,1.63
2022-08-24T03:45:21.525Z,1.93
2022-08-24T03:47:49.639Z,1.87
2022-08-24T03:50:17.665Z,2.20
2022-08-24T03:52:45.650Z,1.50
2022-08-24T03:55:14.088Z,1.53
2022-08-24T03:57:43.476Z,2.00
2022-08-24T04:00:13.775Z,2.47
2022-08-24T04:02:41.774Z,1.40
2022-08-24T04:05:10.748Z,1.93
2022-08-24T04:07:38.771Z,1.53
2022-08-24T04:10:07.692Z,1.70
2022-08-24T04:12:35.671Z,1.73
2022-08-24T04:15:05.771Z,1.97
2022-08-24T04:17:33.707Z,1.93
2022-08-24T04:20:01.936Z,1.33
2022-08-24T04:22:34.067Z,1.40
2022-08-24T04:25:02.052Z,1.77
2022-08-24T04:27:37.013Z,1.47
2022-08-24T04:30:07.382Z,1.80
2022-08-24T04:32:35.685Z,1.43
2022-08-24T04:35:03.875Z,1.50
2022-08-24T04:37:32.234Z,1.50
2022-08-24T04:40:00.318Z,1.30
2022-08-24T04:42:31.570Z,1.40
2022-08-24T04:45:01.563Z,2.23
2022-08-24T04:47:30.858Z,1.47
2022-08-24T04:49:58.754Z,1.70
2022-08-24T04:52:27.190Z,1.40
2022-08-24T04:54:55.093Z,1.27
2022-08-24T04:57:22.993Z,1.90
2022-08-24T04:59:50.910Z,1.40
2022-08-24T05:02:18.842Z,1.83
2022-08-24T05:04:48.286Z,1.60
2022-08-24T05:07:16.192Z,2.03
2022-08-24T05:09:44.082Z,2.17
2022-08-24T05:12:12.803Z,1.80
2022-08-24T05:14:40.683Z,1.83
2022-08-24T05:17:09.336Z,2.20
2022-08-24T05:19:38.549Z,1.83
2022-08-24T05:22:08.077Z,1.90
2022-08-24T05:24:36.036Z,1.73
2022-08-24T05:27:03.970Z,2.07
2022-08-24T05:29:33.712Z,1.40
2022-08-24T05:32:02.224Z,1.93
2022-08-24T05:34:30.992Z,1.50
2022-08-24T05:36:58.886Z,2.13
2022-08-24T05:39:28.507Z,1.70
2022-08-24T05:41:56.409Z,1.43
2022-08-24T05:44:29.113Z,2.20
2022-08-24T05:46:59.171Z,2.27
2022-08-24T05:49:27.766Z,2.10
2022-08-24T05:51:56.214Z,2.90
2022-08-24T05:54:26.047Z,2.03
2022-08-24T05:56:57.257Z,1.57
2022-08-24T05:59:25.217Z,1.67
2022-08-24T06:01:53.512Z,2.90
2022-08-24T06:04:21.781Z,2.03
2022-08-24T06:06:49.976Z,2.30
2022-08-24T06:09:18.199Z,1.70
2022-08-24T06:11:47.571Z,2.53
2022-08-24T06:14:20.262Z,2.43
2022-08-24T06:16:50.760Z,2.53
2022-08-24T06:19:20.291Z,2.90
2022-08-24T06:21:50.271Z,2.50
2022-08-24T06:24:18.511Z,3.20
2022-08-24T06:27:04.433Z,3.57
2022-08-24T06:29:35.648Z,2.20
2022-08-24T06:32:03.948Z,3.23
2022-08-24T06:34:31.869Z,2.00
2022-08-24T06:36:59.762Z,2.00
2022-08-24T06:39:27.662Z,3.03
2022-08-24T06:41:56.384Z,2.63
2022-08-24T06:44:24.339Z,3.17
2022-08-24T06:46:53.752Z,2.40
2022-08-24T06:49:21.887Z,2.00
2022-08-24T06:51:50.935Z,2.37
2022-08-24T06:54:20.757Z,2.47
2022-08-24T06:56:48.846Z,2.10
2022-08-24T06:59:16.745Z,2.50
2022-08-24T07:01:44.696Z,2.83
2022-08-24T07:04:14.030Z,2.10
2022-08-24T07:06:41.999Z,3.10
2022-08-24T07:09:09.939Z,2.80
2022-08-24T07:11:37.836Z,2.20
2022-08-24T07:14:07.370Z,3.03
2022-08-24T07:16:36.399Z,2.43
2022-08-24T07:19:05.615Z,2.30
2022-08-24T07:21:34.939Z,2.90
2022-08-24T07:24:04.262Z,2.70
2022-08-24T07:26:32.941Z,3.23
2022-08-24T07:29:05.981Z,3.27
2022-08-24T07:31:35.524Z,3.50
2022-08-24T07:34:04.599Z,3.30
2022-08-24T07:36:34.299Z,2.87
2022-08-24T07:39:02.688Z,3.37
2022-08-24T07:41:51.273Z,3.43
2022-08-24T07:44:20.131Z,3.13
2022-08-24T07:46:48.169Z,2.90
2022-08-24T07:49:33.202Z,2.80
2022-08-24T07:52:06.184Z,3.00
2022-08-24T07:54:34.520Z,2.83
2022-08-24T07:57:04.462Z,2.67
2022-08-24T07:59:32.369Z,3.33
2022-08-24T08:02:01.214Z,2.97
2022-08-24T08:04:29.269Z,2.67
2022-08-24T08:06:57.246Z,2.73
2022-08-24T08:09:27.061Z,2.60
2022-08-24T08:11:55.062Z,3.03
2022-08-24T08:14:22.979Z,2.60
2022-08-24T08:16:51.009Z,2.50
2022-08-24T08:19:19.004Z,2.20
2022-08-24T08:22:06.558Z,3.33
2022-08-24T08:24:36.170Z,2.80
2022-08-24T08:27:04.166Z,3.03
2022-08-24T08:29:33.356Z,1.93
2022-08-24T08:32:01.580Z,2.50
2022-08-24T08:34:31.321Z,1.90
2022-08-24T08:37:00.327Z,2.23
2022-08-24T08:39:29.171Z,1.80
2022-08-24T08:42:23.431Z,2.43
2022-08-24T08:45:10.302Z,1.90
2022-08-24T08:48:11.717Z,1.80
2022-08-24T08:50:58.258Z,2.40
2022-08-24T08:54:02.810Z,2.40
2022-08-24T08:56:40.467Z,2.23
2022-08-24T08:59:20.917Z,2.40
2022-08-24T09:02:00.580Z,1.70
2022-08-24T09:04:55.850Z,1.93
2022-08-24T09:07:43.833Z,2.67
2022-08-24T09:10:39.700Z,1.83
2022-08-24T09:13:25.390Z,1.20
2022-08-24T09:16:10.399Z,1.80
2022-08-24T09:18:56.301Z,2.00
2022-08-24T09:21:39.521Z,2.17
2022-08-24T09:24:26.042Z,1.60
2022-08-24T09:27:03.660Z,2.40
2022-08-24T09:29:48.371Z,1.47
2022-08-24T09:32:34.908Z,1.93
2022-08-24T09:35:06.053Z,2.63
2022-08-24T09:37:43.891Z,1.93
2022-08-24T09:40:36.742Z,1.87
2022-08-24T09:44:03.166Z,1.90
2022-08-24T09:47:10.272Z,1.60
2022-08-24T09:50:16.871Z,1.60
2022-08-24T09:53:09.172Z,1.80
2022-08-24T09:55:59.063Z,1.10
2022-08-24T09:58:38.647Z,1.30
2022-08-24T10:01:14.163Z,1.50
2022-08-24T10:03:59.453Z,2.30
2022-08-24T10:06:38.970Z,1.80
2022-08-24T10:09:24.500Z,1.60
2022-08-24T10:12:01.020Z,1.60
2022-08-24T10:14:42.373Z,1.97
2022-08-24T10:17:19.080Z,1.80
2022-08-24T10:20:05.676Z,1.93
2022-08-24T10:22:55.744Z,1.90
2022-08-24T10:25:34.930Z,1.67
2022-08-24T10:28:17.937Z,1.77
2022-08-24T10:30:58.609Z,1.97
2022-08-24T10:33:29.399Z,1.73
2022-08-24T10:36:21.114Z,1.30
2022-08-24T10:39:13.622Z,1.90
2022-08-24T10:42:36.228Z,1.70
2022-08-24T10:45:17.117Z,1.63
2022-08-24T10:48:03.888Z,1.43
2022-08-24T10:50:47.158Z,1.27
2022-08-24T10:53:24.025Z,1.63
2022-08-24T10:56:06.375Z,1.57
2022-08-24T10:58:46.296Z,1.43
2022-08-24T11:01:17.367Z,1.40
2022-08-24T11:03:54.403Z,1.27
2022-08-24T11:06:25.315Z,1.43
2022-08-24T11:08:56.707Z,1.53
2022-08-24T11:11:29.733Z,1.90
2022-08-24T11:14:00.375Z,1.60
2022-08-24T11:16:34.003Z,1.27
2022-08-24T11:19:04.293Z,1.63
2022-08-24T11:21:43.721Z,1.83
2022-08-24T11:24:25.045Z,1.63
2022-08-24T11:26:58.484Z,1.33
2022-08-24T11:29:51.115Z,1.50
2022-08-24T11:32:28.400Z,1.60
2022-08-24T11:34:56.762Z,1.40
2022-08-24T11:37:33.355Z,1.70
2022-08-24T11:40:01.650Z,1.40
2022-08-24T11:42:43.839Z,1.53
2022-08-24T11:45:20.476Z,1.20
2022-08-24T11:48:01.406Z,1.23
2022-08-24T11:50:36.651Z,1.60
2022-08-24T11:53:12.922Z,1.50
2022-08-24T11:55:57.519Z,1.30
2022-08-24T11:58:43.835Z,1.00
2022-08-24T12:01:19.160Z,1.10
2022-08-24T12:04:00.585Z,1.10
2022-08-24T12:06:36.191Z,1.47
2022-08-24T12:09:12.677Z,1.43
2022-08-24T12:11:46.073Z,1.53
2022-08-24T12:14:23.815Z,1.07
2022-08-24T12:16:56.600Z,1.30
2022-08-24T12:19:29.531Z,1.47
2022-08-24T12:22:00.564Z,1.40
2022-08-24T12:24:33.428Z,1.50
2022-08-24T12:27:06.191Z,1.30
2022-08-24T12:29:39.684Z,1.70
2022-08-24T12:32:11.346Z,1.17
2022-08-24T12:34:50.080Z,1.10
2022-08-24T12:37:23.483Z,1.40
2022-08-24T12:39:58.523Z,1.03
2022-08-24T12:42:35.339Z,1.60
2022-08-24T12:45:11.655Z,1.30
2022-08-24T12:47:49.919Z,1.30
2022-08-24T12:50:26.405Z,0.90
2022-08-24T12:53:39.393Z,1.40
2022-08-24T12:56:24.692Z,1.67
2022-08-24T12:59:03.846Z,1.50
2022-08-24T13:01:36.765Z,1.43
2022-08-24T13:04:17.351Z,1.50
2022-08-24T13:06:51.117Z,1.10
2022-08-24T13:09:30.928Z,1.50
2022-08-24T13:12:01.110Z,1.23
2022-08-24T13:14:30.479Z,1.50
2022-08-24T13:17:18.883Z,1.03
2022-08-24T13:20:08.229Z,1.27
2022-08-24T13:23:01.059Z,1.40
2022-08-24T13:25:57.669Z,1.27
2022-08-24T13:28:44.169Z,1.27
2022-08-24T13:31:28.430Z,1.10
2022-08-24T13:34:00.678Z,1.47
2022-08-24T13:36:45.728Z,1.30
2022-08-24T13:39:25.477Z,1.20
2022-08-24T13:42:05.087Z,0.97
2022-08-24T13:44:55.724Z,1.00
2022-08-24T13:47:29.085Z,1.00
2022-08-24T13:50:08.503Z,1.03
2022-08-24T13:52:49.247Z,1.30
2022-08-24T13:55:32.598Z,1.13
2022-08-24T13:58:27.010Z,1.20
2022-08-24T14:01:01.945Z,1.00
2022-08-24T14:04:03.162Z,1.10
2022-08-24T14:06:38.475Z,1.20
2022-08-24T14:09:28.895Z,1.83
2022-08-24T14:12:24.041Z,0.97
2022-08-24T14:15:10.755Z,1.10
2022-08-24T14:17:53.853Z,1.37
2022-08-24T14:20:44.187Z,1.10
2022-08-24T14:23:39.277Z,1.13
2022-08-24T14:26:44.472Z,1.27
2022-08-24T14:29:40.564Z,1.00
2022-08-24T14:32:28.186Z,1.10
2022-08-24T14:35:16.040Z,1.17
2022-08-24T14:37:57.100Z,1.20
2022-08-24T14:40:35.710Z,0.90
2022-08-24T14:43:28.507Z,0.90
2022-08-24T14:46:06.447Z,0.93
2022-08-24T14:48:44.686Z,0.97
2022-08-24T14:51:31.666Z,0.90
2022-08-24T14:54:05.351Z,1.00
2022-08-24T14:56:51.349Z,1.00
2022-08-24T14:59:31.252Z,1.00
2022-08-24T15:02:33.402Z,0.80
2022-08-24T15:05:06.751Z,0.80
2022-08-24T15:07:37.593Z,1.20
2022-08-24T15:10:14.794Z,0.97
2022-08-24T15:12:50.179Z,1.10
2022-08-24T15:15:31.061Z,1.23
2022-08-24T15:18:09.668Z,1.10
2022-08-24T15:20:53.667Z,0.80
2022-08-24T15:23:27.462Z,0.80
2022-08-24T15:26:00.354Z,1.17
2022-08-24T15:28:34.549Z,1.07
2022-08-24T15:31:08.319Z,0.90
2022-08-24T15:33:52.904Z,0.83
2022-08-24T15:36:21.190Z,1.17
2022-08-24T15:38:49.686Z,1.10
2022-08-24T15:41:19.873Z,1.03
2022-08-24T15:43:53.482Z,1.33
2022-08-24T15:46:24.476Z,1.17
2022-08-24T15:49:00.268Z,0.70
2022-08-24T15:51:36.672Z,1.10
2022-08-24T15:54:22.786Z,0.90
2022-08-24T15:56:55.364Z,0.90
2022-08-24T15:59:30.674Z,1.20
2022-08-24T16:02:26.057Z,1.43
2022-08-24T16:05:02.681Z,1.10
2022-08-24T16:07:35.601Z,0.80
2022-08-24T16:10:10.254Z,0.80
2022-08-24T16:12:39.473Z,1.00
2022-08-24T16:15:17.150Z,0.93
2022-08-24T16:17:51.341Z,0.80
2022-08-24T16:20:32.861Z,1.20
2022-08-24T16:23:03.428Z,1.00
2022-08-24T16:25:33.303Z,0.83
2022-08-24T16:28:09.903Z,1.10
2022-08-24T16:30:50.327Z,1.10
2022-08-24T16:33:44.375Z,0.97
2022-08-24T16:36:14.532Z,0.90
2022-08-24T16:38:47.361Z,1.00
2022-08-24T16:41:18.368Z,0.90
2022-08-24T16:43:47.188Z,0.83
2022-08-24T16:46:22.196Z,0.80
2022-08-24T16:48:50.247Z,1.40
2022-08-24T16:51:18.242Z,0.97
2022-08-24T16:53:46.176Z,1.00
2022-08-24T16:56:16.669Z,1.10
2022-08-24T16:58:47.314Z,1.10
2022-08-24T17:01:17.518Z,1.30
2022-08-24T17:03:45.630Z,0.70
2022-08-24T17:06:14.773Z,1.40
2022-08-24T17:08:42.915Z,0.90
2022-08-24T17:11:10.849Z,0.90
2022-08-24T17:13:49.517Z,0.93
2022-08-24T17:16:20.255Z,1.30
2022-08-24T17:18:48.469Z,1.03
2022-08-24T17:21:16.450Z,1.00
2022-08-24T17:23:44.865Z,1.03
2022-08-24T17:26:20.516Z,0.80
2022-08-24T17:28:50.533Z,1.00
2022-08-24T17:31:19.995Z,0.70
2022-08-24T17:33:48.371Z,1.07
2022-08-24T17:36:17.706Z,0.80
2022-08-24T17:38:55.095Z,1.00
2022-08-24T17:41:24.770Z,0.97
2022-08-24T17:43:52.742Z,0.93
2022-08-24T17:46:22.569Z,1.00
2022-08-24T17:48:50.950Z,1.17
2022-08-24T17:51:19.539Z,1.03
2022-08-24T17:53:47.453Z,1.07
2022-08-24T17:56:16.309Z,1.07
2022-08-24T17:58:58.889Z,1.10
2022-08-24T18:01:28.717Z,0.90
2022-08-24T18:03:56.795Z,1.10
2022-08-24T18:06:27.781Z,0.80
2022-08-24T18:08:56.729Z,1.10
2022-08-24T18:11:26.177Z,1.30
2022-08-24T18:13:54.819Z,1.60
2022-08-24T18:16:27.476Z,1.77
2022-08-24T18:18:57.589Z,2.00
2022-08-24T18:21:26.638Z,2.03
2022-08-24T18:23:54.644Z,2.43
2022-08-24T18:26:28.041Z,1.53
2022-08-24T18:28:58.241Z,2.10
2022-08-24T18:31:28.713Z,1.93
2022-08-24T18:33:58.087Z,1.67
2022-08-24T18:36:26.044Z,1.50
2022-08-24T18:38:54.228Z,2.23
2022-08-24T18:41:24.953Z,1.60
2022-08-24T18:43:54.282Z,1.60
2022-08-24T18:46:22.618Z,1.23
2022-08-24T18:48:50.569Z,1.13
2022-08-24T18:51:21.383Z,1.17
2022-08-24T18:53:49.432Z,1.00
2022-08-24T18:56:17.670Z,0.90
2022-08-24T18:58:45.670Z,1.20
2022-08-24T19:01:13.929Z,1.00
2022-08-24T19:03:43.573Z,0.97
2022-08-24T19:06:11.517Z,1.40
2022-08-24T19:08:40.820Z,1.00
2022-08-24T19:11:09.154Z,1.00
2022-08-24T19:13:38.295Z,0.87
2022-08-24T19:16:06.452Z,1.03
2022-08-24T19:18:34.706Z,1.13
2022-08-24T19:21:02.891Z,1.30
2022-08-24T19:23:34.705Z,1.20
2022-08-24T19:26:05.028Z,1.07
2022-08-24T19:28:33.218Z,1.00
2022-08-24T19:31:03.741Z,1.10
2022-08-24T19:33:36.942Z,1.00
2022-08-24T19:36:05.372Z,1.40
2022-08-24T19:38:33.316Z,1.30
2022-08-24T19:41:11.692Z,1.37
2022-08-24T19:43:55.825Z,1.40
2022-08-24T19:46:24.757Z,1.20
2022-08-24T19:48:52.782Z,1.20
2022-08-24T19:51:20.805Z,1.10
2022-08-24T19:53:48.773Z,1.37
2022-08-24T19:56:18.019Z,1.10
2022-08-24T19:58:47.965Z,1.40
2022-08-24T20:01:21.286Z,1.53
2022-08-24T20:03:49.800Z,1.50
2022-08-24T20:06:20.532Z,1.10
2022-08-24T20:08:49.354Z,1.20
2022-08-24T20:11:20.176Z,1.30
2022-08-24T20:13:53.380Z,1.17
2022-08-24T20:16:22.359Z,1.10
2022-08-24T20:18:50.878Z,1.40
2022-08-24T20:21:19.340Z,1.20
2022-08-24T20:23:47.627Z,1.10
2022-08-24T20:26:15.919Z,1.40
2022-08-24T20:28:49.050Z,1.03
2022-08-24T20:31:19.284Z,1.03
2022-08-24T20:33:47.332Z,1.20
2022-08-24T20:36:23.178Z,1.07
2022-08-24T20:38:51.125Z,1.27
2022-08-24T20:41:19.116Z,1.27
2022-08-24T20:43:49.048Z,1.47
2022-08-24T20:46:17.401Z,0.90
2022-08-24T20:48:47.211Z,1.17
2022-08-24T20:51:23.918Z,1.20
2022-08-24T20:53:51.911Z,1.10
2022-08-24T20:56:30.881Z,1.23
2022-08-24T20:59:02.223Z,1.20
2022-08-24T21:01:30.535Z,1.37
2022-08-24T21:04:04.140Z,1.37
2022-08-24T21:06:34.309Z,1.30
2022-08-24T21:09:02.981Z,1.27
2022-08-24T21:11:32.894Z,1.40
2022-08-24T21:14:05.565Z,1.00
2022-08-24T21:16:34.789Z,1.40
2022-08-24T21:19:02.779Z,1.30
2022-08-24T21:21:30.991Z,0.87
2022-08-24T21:23:58.917Z,1.00
2022-08-24T21:26:28.257Z,1.60
2022-08-24T21:28:57.345Z,1.37
2022-08-24T21:31:27.110Z,1.30
2022-08-24T21:34:12.955Z,1.10
2022-08-24T21:36:42.141Z,0.80
2022-08-24T21:39:11.174Z,1.40
2022-08-24T21:41:40.251Z,1.10
2022-08-24T21:44:08.464Z,1.30
2022-08-24T21:46:39.388Z,1.30
2022-08-24T21:49:12.006Z,1.10
2022-08-24T21:51:40.187Z,1.30
2022-08-24T21:54:08.340Z,1.53
2022-08-24T21:56:36.425Z,0.97
2022-08-24T21:59:04.736Z,1.37
2022-08-24T22:01:33.170Z,1.13
2022-08-24T22:04:02.545Z,1.27
2022-08-24T22:06:31.791Z,1.00
2022-08-24T22:09:00.385Z,1.50
2022-08-24T22:11:28.910Z,1.30
2022-08-24T22:13:57.400Z,1.70
2022-08-24T22:16:26.192Z,1.70
2022-08-24T22:18:54.297Z,1.40
2022-08-24T22:21:29.352Z,1.90
2022-08-24T22:23:57.820Z,1.23
2022-08-24T22:26:26.667Z,1.70
2022-08-24T22:28:56.686Z,1.50
2022-08-24T22:31:27.036Z,1.40
2022-08-24T22:33:56.469Z,1.23
2022-08-24T22:36:27.339Z,1.33
2022-08-24T22:38:56.195Z,1.63
2022-08-24T22:41:24.629Z,1.80
2022-08-24T22:44:12.283Z,1.40
2022-08-24T22:46:40.889Z,1.53
2022-08-24T22:49:09.994Z,1.63
2022-08-24T22:51:40.339Z,1.07
2022-08-24T22:54:08.878Z,1.10
2022-08-24T22:56:40.756Z,1.20
2022-08-24T22:59:09.591Z,1.07
2022-08-24T23:01:40.483Z,1.20
2022-08-24T23:04:12.532Z,1.50
2022-08-24T23:06:42.035Z,1.40
2022-08-24T23:09:10.279Z,1.27
2022-08-24T23:11:38.633Z,1.60
2022-08-24T23:14:08.950Z,1.23
2022-08-24T23:16:38.882Z,1.80
2022-08-24T23:19:26.222Z,1.33
2022-08-24T23:21:55.562Z,1.43
2022-08-24T23:24:23.608Z,1.43
2022-08-24T23:26:51.589Z,2.03
2022-08-24T23:29:19.623Z,1.93
2022-08-24T23:31:47.853Z,1.30
2022-08-24T23:34:15.973Z,1.53
2022-08-24T23:36:45.976Z,1.70
2022-08-24T23:39:15.567Z,1.17
2022-08-24T23:41:46.138Z,1.63
2022-08-24T23:44:16.318Z,1.40
2022-08-24T23:46:45.784Z,1.50
2022-08-24T23:49:14.934Z,1.23
2022-08-24T23:51:43.419Z,1.17
2022-08-24T23:54:12.457Z,1.63
2022-08-24T23:56:45.302Z,1.40
2022-08-24T23:59:16.552Z,1.37
